Time;durP1;ratioP1;P1;durP2;ratioP2;P2;SDS_P1;SDS_P2;PMS_P1;PMS_P2;Temp;Humidity;BMP_temperature;BMP_pressure;BME280_temperature;BME280_humidity;BME280_pressure;Samples;Min_cycle;Max_cycle;Signal;HPM_P1;HPM_P2
2023/03/01 00:02:00;;;;;;;22.50;12.65;;;;;;;-6.54;100.00;99781.84;4158592;28;20381;-72
2023/03/01 00:04:00;;;;;;;27.05;14.48;;;;;;;-6.61;100.00;99788.41;4158652;28;20410;-72
2023/03/01 00:06:01;;;;;;;29.63;14.68;;;;;;;-6.60;100.00;99790.84;4159126;28;20029;-72
2023/03/01 00:08:01;;;;;;;29.20;13.70;;;;;;;-6.62;100.00;99792.97;4158485;28;20042;-72
2023/03/01 00:10:02;;;;;;;27.42;14.18;;;;;;;-6.64;100.00;99802.31;4158710;28;20033;-72
2023/03/01 00:12:03;;;;;;;26.45;13.40;;;;;;;-6.67;100.00;99797.41;4158900;28;20030;-72
2023/03/01 00:14:04;;;;;;;25.83;13.23;;;;;;;-6.70;100.00;99796.00;4158419;28;20056;-72
2023/03/01 00:16:09;;;;;;;27.00;14.45;;;;;;;-6.75;100.00;99795.88;4159088;28;20108;-72
2023/03/01 00:18:10;;;;;;;28.70;13.98;;;;;;;-6.69;100.00;99786.06;4158491;28;20277;-72
2023/03/01 00:20:10;;;;;;;25.08;12.88;;;;;;;-6.67;100.00;99792.84;4158882;28;20033;-72
2023/03/01 00:22:11;;;;;;;23.08;12.93;;;;;;;-6.72;100.00;99786.50;4159274;28;20064;-73
2023/03/01 00:24:11;;;;;;;27.35;13.43;;;;;;;-6.77;100.00;99789.91;4157749;28;20029;-72
2023/03/01 00:26:13;;;;;;;23.35;12.95;;;;;;;-6.80;100.00;99793.06;4159044;28;20037;-72
2023/03/01 00:28:14;;;;;;;26.45;13.93;;;;;;;-6.85;100.00;99787.56;4158409;28;20436;-73
2023/03/01 00:30:14;;;;;;;30.15;13.15;;;;;;;-6.86;100.00;99785.94;4158620;28;20064;-74
2023/03/01 00:32:15;;;;;;;28.13;13.75;;;;;;;-6.89;100.00;99803.34;4158180;28;20034;-73
2023/03/01 00:34:15;;;;;;;28.45;13.98;;;;;;;-6.85;100.00;99793.78;4157923;28;20031;-73
2023/03/01 00:36:15;;;;;;;23.35;13.45;;;;;;;-6.86;100.00;99800.22;4159181;28;20031;-73
2023/03/01 00:38:16;;;;;;;30.23;15.27;;;;;;;-6.77;100.00;99797.19;4158105;28;20113;-73
2023/03/01 00:40:16;;;;;;;24.25;12.82;;;;;;;-6.72;100.00;99790.03;4158377;28;20026;-73
2023/03/01 00:42:17;;;;;;;25.83;12.32;;;;;;;-6.68;100.00;99796.59;4158591;28;20033;-73
2023/03/01 00:44:17;;;;;;;31.83;14.20;;;;;;;-6.63;100.00;99790.50;4157770;28;20026;-73
2023/03/01 00:46:20;;;;;;;35.13;15.13;;;;;;;-6.54;100.00;99797.16;4158064;28;20084;-73
2023/03/01 00:48:20;;;;;;;28.40;14.98;;;;;;;-6.46;100.00;99794.13;4158281;28;20022;-73
2023/03/01 00:50:21;;;;;;;28.30;14.95;;;;;;;-6.36;100.00;99785.47;4158848;28;20115;-73
2023/03/01 00:52:21;;;;;;;25.08;13.27;;;;;;;-6.33;100.00;99788.50;4157797;28;20063;-73
2023/03/01 00:54:22;;;;;;;25.35;13.70;;;;;;;-6.31;100.00;99786.38;4158221;28;20119;-73
2023/03/01 00:56:22;;;;;;;24.30;12.82;;;;;;;-6.30;100.00;99781.81;4158185;28;20616;-73
2023/03/01 00:58:23;;;;;;;24.48;13.20;;;;;;;-6.31;100.00;99786.38;4157965;28;20492;-73
2023/03/01 01:00:23;;;;;;;24.33;13.85;;;;;;;-6.33;100.00;99791.19;4157745;28;20437;-73
2023/03/01 01:02:23;;;;;;;27.75;14.60;;;;;;;-6.39;100.00;99775.97;4158101;28;20037;-73
2023/03/01 01:04:24;;;;;;;27.88;14.38;;;;;;;-6.40;100.00;99776.22;4157766;28;20049;-73
2023/03/01 01:06:27;;;;;;;28.98;13.80;;;;;;;-6.37;100.00;99770.34;4157965;28;20174;-73
2023/03/01 01:08:27;;;;;;;27.55;14.30;;;;;;;-6.29;100.00;99781.59;4157124;28;20394;-73
2023/03/01 01:10:28;;;;;;;23.42;13.25;;;;;;;-6.23;100.00;99771.72;4158210;28;20212;-73
2023/03/01 01:12:28;;;;;;;29.80;14.38;;;;;;;-6.20;100.00;99767.75;4157870;28;20550;-73
2023/03/01 01:14:28;;;;;;;28.42;14.45;;;;;;;-6.16;100.00;99775.13;4157368;28;20042;-73
2023/03/01 01:16:29;;;;;;;28.40;14.50;;;;;;;-6.12;100.00;99770.06;4157472;28;20057;-73
2023/03/01 01:18:29;;;;;;;30.83;13.48;;;;;;;-6.10;100.00;99765.28;4158020;28;20037;-72
2023/03/01 01:20:30;;;;;;;29.73;13.68;;;;;;;-6.07;100.00;99767.50;4157970;28;20420;-73
2023/03/01 01:22:30;;;;;;;30.77;14.32;;;;;;;-6.02;100.00;99760.34;4157343;28;20080;-73
2023/03/01 01:24:31;;;;;;;28.05;13.63;;;;;;;-6.03;100.00;99756.00;4158221;28;20474;-73
2023/03/01 01:26:32;;;;;;;27.77;13.95;;;;;;;-6.01;100.00;99755.75;4157323;28;20049;-73
2023/03/01 01:28:34;;;;;;;31.13;13.52;;;;;;;-6.02;100.00;99749.56;4157623;28;20088;-73
2023/03/01 01:30:34;;;;;;;31.05;13.18;;;;;;;-6.04;100.00;99746.28;4157800;28;20045;-73
2023/03/01 01:32:35;;;;;;;33.42;15.50;;;;;;;-6.04;100.00;99748.13;4157278;28;20485;-73
2023/03/01 01:34:35;;;;;;;29.38;14.30;;;;;;;-6.07;100.00;99746.75;4158166;28;20065;-72
2023/03/01 01:36:35;;;;;;;28.25;14.50;;;;;;;-6.05;100.00;99744.63;4157667;28;20048;-73
2023/03/01 01:38:37;;;;;;;26.27;13.88;;;;;;;-6.04;100.00;99748.97;4157765;28;20168;-72
2023/03/01 01:40:45;;;;;;;31.92;14.73;;;;;;;-6.09;100.00;99739.97;4157315;28;20061;-73
2023/03/01 01:42:46;;;;;;;29.13;14.18;;;;;;;-6.08;100.00;99741.59;4156705;28;20047;-73
2023/03/01 01:44:47;;;;;;;26.38;13.73;;;;;;;-6.11;100.00;99744.78;4157549;28;20458;-73
2023/03/01 01:47:01;;;;;;;26.38;12.95;;;;;;;-6.05;100.00;99733.03;4157317;28;20049;-73
2023/03/01 01:49:12;;;;;;;31.15;13.55;;;;;;;-6.08;100.00;99730.81;4157113;28;20481;-73
2023/03/01 01:51:19;;;;;;;26.77;14.32;;;;;;;-6.09;100.00;99721.94;4157589;28;20112;-73
2023/03/01 01:53:20;;;;;;;29.20;13.52;;;;;;;-6.05;100.00;99722.25;4157042;28;20103;-73
2023/03/01 01:55:27;;;;;;;26.13;14.27;;;;;;;-6.00;100.00;99719.66;4157439;28;20045;-73
2023/03/01 01:57:35;;;;;;;27.67;13.80;;;;;;;-6.02;100.00;99719.91;4157402;28;20510;-73
2023/03/01 01:59:37;;;;;;;29.50;14.15;;;;;;;-6.05;100.00;99711.47;4155761;28;20053;-73
2023/03/01 02:01:38;;;;;;;25.58;14.63;;;;;;;-6.04;100.00;99716.66;4157817;28;20038;-73
2023/03/01 02:03:41;;;;;;;28.67;13.65;;;;;;;-6.03;100.00;99720.16;4156894;28;20393;-73
2023/03/01 02:05:45;;;;;;;27.77;13.65;;;;;;;-6.04;100.00;99719.34;4157569;28;20037;-73
2023/03/01 02:07:46;;;;;;;26.70;13.88;;;;;;;-6.07;100.00;99710.91;4157334;28;20103;-73
2023/03/01 02:09:49;;;;;;;28.38;14.60;;;;;;;-6.12;100.00;99700.00;4157641;28;20478;-73
2023/03/01 02:11:51;;;;;;;27.00;14.30;;;;;;;-6.22;100.00;99701.44;4157184;28;20029;-73
2023/03/01 02:13:53;;;;;;;29.63;14.40;;;;;;;-6.28;100.00;99694.34;4156435;28;20444;-73
2023/03/01 02:15:53;;;;;;;30.45;14.80;;;;;;;-6.38;100.00;99687.91;4157051;28;20136;-73
2023/03/01 02:17:54;;;;;;;29.92;15.50;;;;;;;-6.42;100.00;99686.75;4157703;28;20053;-73
2023/03/01 02:20:16;;;;;;;23.08;13.05;;;;;;;-6.48;100.00;99679.63;4159297;28;20041;-73
2023/03/01 02:22:28;;;;;;;26.77;14.57;;;;;;;-6.53;100.00;99686.56;4160150;28;20128;-73
2023/03/01 02:24:35;;;;;;;28.48;13.40;;;;;;;-6.54;100.00;99670.63;4160675;28;20132;-73
2023/03/01 02:26:49;;;;;;;26.23;13.48;;;;;;;-6.56;100.00;99676.25;4160303;28;20053;-73
2023/03/01 02:28:50;;;;;;;24.75;12.75;;;;;;;-6.61;100.00;99673.47;4159501;28;20128;-73
2023/03/01 02:33:10;;;;;;;28.25;13.85;;;;;;;-6.63;100.00;99685.50;4159839;28;20076;-73
2023/03/01 02:35:14;;;;;;;29.77;14.07;;;;;;;-6.65;100.00;99685.75;4160437;28;20049;-73
2023/03/01 02:37:20;;;;;;;28.20;14.05;;;;;;;-6.65;100.00;99682.22;4160443;28;20046;-73
2023/03/01 02:39:28;;;;;;;32.83;14.70;;;;;;;-6.63;100.00;99686.31;4160115;28;20049;-73
2023/03/01 02:41:35;;;;;;;27.00;13.63;;;;;;;-6.65;100.00;99684.94;4160517;28;20151;-73
2023/03/01 02:43:36;;;;;;;29.58;13.82;;;;;;;-6.65;100.00;99691.13;4158987;28;20405;-73
2023/03/01 02:45:36;;;;;;;24.67;12.80;;;;;;;-6.64;100.00;99692.75;4160434;28;20136;-73
2023/03/01 02:47:36;;;;;;;28.27;14.57;;;;;;;-6.61;100.00;99691.50;4160542;28;20049;-73
2023/03/01 02:49:37;;;;;;;27.80;14.05;;;;;;;-6.56;100.00;99697.78;4160057;28;20099;-73
2023/03/01 02:52:08;;;;;;;29.45;12.73;;;;;;;-6.48;100.00;99696.59;4159968;28;20030;-73
2023/03/01 02:54:28;;;;;;;26.20;13.35;;;;;;;-6.41;100.00;99681.13;4158898;28;20041;-73
2023/03/01 02:56:29;;;;;;;24.13;12.18;;;;;;;-6.31;100.00;99685.91;4159896;28;20394;-73
2023/03/01 02:58:29;;;;;;;26.15;12.68;;;;;;;-6.35;100.00;99682.06;4159821;28;20514;-72
2023/03/01 03:00:39;;;;;;;24.60;12.13;;;;;;;-6.38;100.00;99682.53;4160349;28;20128;-73
2023/03/01 03:02:40;;;;;;;25.92;12.88;;;;;;;-6.37;100.00;99690.38;4159376;28;20146;-73
2023/03/01 03:04:40;;;;;;;31.10;13.20;;;;;;;-6.36;100.00;99678.56;4159940;28;20053;-73
2023/03/01 03:06:41;;;;;;;29.27;14.63;;;;;;;-6.35;100.00;99685.56;4160417;28;20091;-72
2023/03/01 03:08:41;;;;;;;25.13;13.05;;;;;;;-6.31;100.00;99686.72;4159581;28;20037;-73
2023/03/01 03:10:43;;;;;;;26.27;13.80;;;;;;;-6.32;100.00;99678.88;4159730;28;20044;-73
2023/03/01 03:12:43;;;;;;;26.43;13.57;;;;;;;-6.35;100.00;99684.75;4159253;28;20072;-73
2023/03/01 03:14:43;;;;;;;30.10;12.73;;;;;;;-6.34;100.00;99681.81;4159361;28;20076;-73
2023/03/01 03:16:47;;;;;;;26.92;13.00;;;;;;;-6.38;100.00;99680.66;4159796;28;20052;-72
2023/03/01 03:18:48;;;;;;;27.05;13.20;;;;;;;-6.39;100.00;99670.94;4159985;28;20060;-73
2023/03/01 03:20:52;;;;;;;29.98;14.80;;;;;;;-6.37;100.00;99676.94;4159940;28;20466;-73
2023/03/01 03:22:55;;;;;;;25.92;13.02;;;;;;;-6.37;100.00;99676.94;4159204;28;20059;-73
2023/03/01 03:24:56;;;;;;;33.33;12.52;;;;;;;-6.42;100.00;99676.00;4158899;28;20034;-73
2023/03/01 03:26:56;;;;;;;30.50;13.05;;;;;;;-6.53;100.00;99678.47;4159372;28;20041;-73
2023/03/01 03:28:56;;;;;;;28.02;13.30;;;;;;;-6.58;100.00;99689.13;4159632;28;20509;-72
2023/03/01 03:30:58;;;;;;;29.67;13.27;;;;;;;-6.63;100.00;99691.69;4159084;28;20032;-73
2023/03/01 03:32:59;;;;;;;27.52;13.75;;;;;;;-6.69;100.00;99699.94;4159117;28;20068;-72
2023/03/01 03:34:59;;;;;;;27.20;13.82;;;;;;;-6.61;100.00;99696.88;4159154;28;20183;-72
2023/03/01 03:37:00;;;;;;;33.85;13.05;;;;;;;-6.64;100.00;99692.75;4159849;28;20501;-73
2023/03/01 03:39:00;;;;;;;26.83;12.73;;;;;;;-6.68;100.00;99696.19;4159641;28;20073;-73
2023/03/01 03:41:07;;;;;;;32.40;14.48;;;;;;;-6.75;100.00;99685.53;4159117;28;20034;-73
2023/03/01 03:43:10;;;;;;;29.65;14.32;;;;;;;-6.79;100.00;99678.97;4157729;28;20466;-73
2023/03/01 03:45:11;;;;;;;29.17;13.52;;;;;;;-6.80;100.00;99672.75;4159203;28;20378;-73
2023/03/01 03:47:11;;;;;;;31.98;13.90;;;;;;;-6.82;100.00;99674.88;4159283;28;20041;-73
2023/03/01 03:49:11;;;;;;;28.83;13.88;;;;;;;-6.85;100.00;99666.47;4159611;28;20045;-73
2023/03/01 03:51:13;;;;;;;32.97;13.93;;;;;;;-6.86;100.00;99665.66;4159496;28;20052;-73
2023/03/01 03:53:14;;;;;;;29.90;14.32;;;;;;;-6.89;100.00;99674.19;4158579;28;20053;-73
2023/03/01 03:55:19;;;;;;;28.15;12.65;;;;;;;-6.84;100.00;99671.63;4158751;28;20060;-73
2023/03/01 03:57:21;;;;;;;26.50;13.30;;;;;;;-6.85;100.00;99669.97;4158891;28;20041;-72
2023/03/01 03:59:21;;;;;;;24.67;13.27;;;;;;;-6.89;100.00;99666.09;4159320;28;20136;-72
2023/03/01 04:01:21;;;;;;;36.38;14.40;;;;;;;-6.91;100.00;99659.34;4157869;28;20127;-72
2023/03/01 04:03:23;;;;;;;32.78;13.13;;;;;;;-6.97;100.00;99662.97;4158679;28;20095;-73
2023/03/01 04:05:23;;;;;;;32.23;13.27;;;;;;;-6.97;100.00;99671.03;4159054;28;20438;-73
2023/03/01 04:07:24;;;;;;;32.20;13.55;;;;;;;-7.07;100.00;99668.94;4158585;28;20053;-73
2023/03/01 04:09:24;;;;;;;29.38;13.55;;;;;;;-7.00;100.00;99674.19;4159140;28;20596;-73
2023/03/01 04:11:27;;;;;;;30.85;14.80;;;;;;;-7.10;100.00;99667.53;4158815;28;20084;-73
2023/03/01 04:13:27;;;;;;;24.27;12.65;;;;;;;-7.14;100.00;99666.34;4158320;28;20041;-72
2023/03/01 04:15:28;;;;;;;30.30;13.70;;;;;;;-7.15;100.00;99666.59;4158431;28;20359;-73
2023/03/01 04:17:28;;;;;;;31.10;14.20;;;;;;;-7.16;100.00;99657.69;4159153;28;20049;-73
2023/03/01 04:19:29;;;;;;;26.20;13.50;;;;;;;-7.17;100.00;99660.63;4158879;28;20044;-73
2023/03/01 04:21:29;;;;;;;30.10;13.20;;;;;;;-7.29;100.00;99657.09;4158553;28;20148;-73
2023/03/01 04:23:30;;;;;;;29.02;13.57;;;;;;;-7.32;100.00;99653.03;4158052;28;20118;-73
2023/03/01 04:25:30;;;;;;;33.45;14.60;;;;;;;-7.18;100.00;99659.00;4158072;28;20128;-73
2023/03/01 04:27:30;;;;;;;28.98;14.43;;;;;;;-7.21;100.00;99649.50;4158657;28;20065;-73
2023/03/01 04:29:31;;;;;;;28.75;13.77;;;;;;;-7.23;100.00;99654.31;4159210;28;20056;-73
2023/03/01 04:31:31;;;;;;;31.77;14.10;;;;;;;-7.30;100.00;99652.78;4158786;28;20057;-74
2023/03/01 04:33:31;;;;;;;28.30;12.90;;;;;;;-7.31;100.00;99669.97;4158097;28;20041;-73
2023/03/01 04:35:34;;;;;;;29.38;14.13;;;;;;;-7.40;100.00;99658.75;4158583;28;20054;-73
2023/03/01 04:37:34;;;;;;;;;;;;;;;-7.34;100.00;99663.19;4159301;28;20049;-73
2023/03/01 04:39:45;;;;;;;24.50;12.52;;;;;;;-7.36;100.00;99660.75;4158209;28;20419;-73
2023/03/01 04:41:45;;;;;;;31.42;12.60;;;;;;;-7.37;100.00;99656.41;4158605;28;20042;-73
2023/03/01 04:43:46;;;;;;;27.05;13.18;;;;;;;-7.38;100.00;99649.38;4156952;28;20478;-73
2023/03/01 04:45:46;;;;;;;28.52;12.48;;;;;;;-7.39;100.00;99660.38;4157289;28;20053;-73
2023/03/01 04:47:47;;;;;;;26.40;12.32;;;;;;;-7.48;100.00;99651.84;4158533;28;20288;-73
2023/03/01 04:49:47;;;;;;;30.55;13.57;;;;;;;-7.47;100.00;99655.34;4158442;28;20041;-73
2023/03/01 04:51:47;;;;;;;23.13;13.25;;;;;;;-7.53;100.00;99657.09;4159070;28;20059;-73
2023/03/01 04:53:48;;;;;;;31.10;14.48;;;;;;;-7.55;100.00;99644.94;4157468;28;20049;-73
2023/03/01 04:55:49;;;;;;;29.85;14.40;;;;;;;-7.49;100.00;99655.56;4158430;28;20052;-73
2023/03/01 04:57:49;;;;;;;25.92;12.73;;;;;;;-7.52;100.00;99653.38;4158129;28;20453;-73
2023/03/01 04:59:49;;;;;;;31.98;14.30;;;;;;;-7.53;100.00;99653.56;4158482;28;20596;-73
2023/03/01 05:01:55;;;;;;;28.98;14.57;;;;;;;-7.67;100.00;99652.97;4158551;28;20041;-73
2023/03/01 05:03:55;;;;;;;31.65;13.80;;;;;;;-7.77;100.00;99652.72;4155914;28;20444;-73
2023/03/01 05:05:59;;;;;;;39.28;15.60;;;;;;;-7.84;100.00;99646.63;4157720;28;20096;-73
2023/03/01 05:08:02;;;;;;;37.88;15.23;;;;;;;-7.93;100.00;99646.97;4156687;28;20532;-73
2023/03/01 05:10:02;;;;;;;35.17;15.20;;;;;;;-7.93;100.00;99646.97;4157733;28;20057;-73
2023/03/01 05:12:03;;;;;;;33.20;14.85;;;;;;;-7.94;100.00;99645.34;4158304;28;20420;-73
2023/03/01 05:14:05;;;;;;;37.00;14.88;;;;;;;-7.86;100.00;99636.13;4157670;28;20033;-73
2023/03/01 05:16:10;;;;;;;38.55;15.70;;;;;;;-7.68;100.00;99635.22;4158427;28;20025;-73
2023/03/01 05:18:11;;;;;;;33.95;16.92;;;;;;;-7.65;100.00;99634.75;4157832;28;20458;-73
2023/03/01 05:20:11;;;;;;;31.58;15.57;;;;;;;-7.68;100.00;99643.28;4158401;28;20114;-73
2023/03/01 05:22:11;;;;;;;34.95;16.35;;;;;;;-7.59;100.00;99639.22;4156783;28;20025;-73
2023/03/01 05:24:12;;;;;;;47.67;17.45;;;;;;;-7.57;100.00;99629.03;4156422;28;20033;-73
2023/03/01 05:26:14;;;;;;;40.45;16.23;;;;;;;-7.59;100.00;99630.31;4158216;28;20075;-73
2023/03/01 05:28:15;;;;;;;32.58;14.85;;;;;;;-7.62;100.00;99634.28;4157900;28;20025;-72
2023/03/01 05:30:16;;;;;;;32.38;14.60;;;;;;;-7.63;100.00;99641.53;4158105;28;20355;-73
2023/03/01 05:32:16;;;;;;;31.73;15.10;;;;;;;-7.59;100.00;99630.31;4157887;28;20400;-73
2023/03/01 05:34:16;;;;;;;33.72;14.80;;;;;;;-7.65;100.00;99632.06;4157383;28;20023;-73
2023/03/01 05:36:18;;;;;;;36.03;15.10;;;;;;;-7.65;100.00;99642.81;4157341;28;20053;-73
2023/03/01 05:38:19;;;;;;;33.67;15.00;;;;;;;-7.69;100.00;99630.91;4157945;28;20048;-73
2023/03/01 05:40:22;;;;;;;34.42;14.90;;;;;;;-7.72;100.00;99637.53;4158148;28;20427;-73
2023/03/01 05:42:22;;;;;;;31.05;14.65;;;;;;;-7.60;100.00;99637.56;4157404;28;20033;-73
2023/03/01 05:44:23;;;;;;;28.33;13.15;;;;;;;-7.64;100.00;99636.38;4157055;28;20444;-73
2023/03/01 05:46:24;;;;;;;32.75;14.25;;;;;;;-7.55;100.00;99634.19;4157865;28;20038;-72
2023/03/01 05:48:24;;;;;;;28.80;14.10;;;;;;;-7.58;100.00;99632.78;4157604;28;20049;-72
2023/03/01 05:50:28;;;;;;;32.28;13.90;;;;;;;-7.65;100.00;99627.50;4157588;28;20022;-72
2023/03/01 05:52:28;;;;;;;33.80;14.40;;;;;;;-7.61;100.00;99635.94;4157186;28;20037;-72
2023/03/01 05:54:28;;;;;;;28.35;13.63;;;;;;;-7.73;100.00;99632.41;4158065;28;20047;-73
2023/03/01 05:56:29;;;;;;;30.90;12.70;;;;;;;-7.68;100.00;99636.03;4160935;28;20441;-73
2023/03/01 05:58:29;;;;;;;29.08;12.45;;;;;;;-7.68;100.00;99638.72;4079640;27;20121;-73
2023/03/01 06:00:30;;;;;;;36.47;15.65;;;;;;;-7.68;100.00;99633.34;4172394;28;20045;-73
2023/03/01 06:02:31;;;;;;;29.90;12.98;;;;;;;-7.71;100.00;99641.03;4160281;28;20049;-73
2023/03/01 06:04:31;;;;;;;30.27;13.85;;;;;;;-7.81;100.00;99630.88;4160727;28;20068;-73
2023/03/01 06:06:39;;;;;;;32.63;13.52;;;;;;;-7.80;100.00;99642.44;4160641;28;20033;-73
2023/03/01 06:08:39;;;;;;;28.77;13.50;;;;;;;-7.77;100.00;99632.06;4160210;28;20501;-72
2023/03/01 06:10:40;;;;;;;35.85;15.43;;;;;;;-7.72;100.00;99648.28;4160966;28;20089;-72
2023/03/01 06:12:42;;;;;;;28.15;14.00;;;;;;;-7.76;100.00;99641.75;4159375;28;20091;-73
2023/03/01 06:14:42;;;;;;;27.53;12.83;;;;;;;-7.79;100.00;99636.81;4160412;28;20029;-72
2023/03/01 06:16:42;;;;;;;27.27;14.02;;;;;;;-7.76;100.00;99641.75;4159853;28;20045;-73
2023/03/01 06:18:43;;;;;;;32.72;14.52;;;;;;;-7.71;100.00;99638.34;4161077;28;20406;-73
2023/03/01 06:20:43;;;;;;;30.45;13.35;;;;;;;-7.71;100.00;99638.34;4160170;28;20049;-72
2023/03/01 06:22:44;;;;;;;27.10;14.40;;;;;;;-7.71;100.00;99644.53;4159523;28;20034;-72
2023/03/01 06:24:45;;;;;;;29.52;14.13;;;;;;;-7.67;100.00;99652.97;4160628;28;20320;-72
2023/03/01 06:26:45;;;;;;;32.63;12.77;;;;;;;-7.69;100.00;99653.22;4161277;28;20111;-73
2023/03/01 06:28:45;;;;;;;27.73;13.82;;;;;;;-7.74;100.00;99649.56;4160645;28;20041;-73
2023/03/01 06:30:46;;;;;;;33.25;14.38;;;;;;;-7.76;100.00;99647.13;4160563;28;20466;-73
2023/03/01 06:32:46;;;;;;;30.55;14.63;;;;;;;-7.70;100.00;99638.13;4159868;28;20516;-73
2023/03/01 06:34:47;;;;;;;30.92;15.70;;;;;;;-7.68;100.00;99640.59;4159683;28;20041;-73
2023/03/01 06:36:47;;;;;;;29.13;13.23;;;;;;;-7.70;100.00;99638.13;4160185;28;20489;-73
2023/03/01 06:38:47;;;;;;;27.38;12.40;;;;;;;-7.75;100.00;99638.00;4159719;28;20783;-73
2023/03/01 06:40:53;;;;;;;34.55;14.75;;;;;;;-7.79;100.00;99638.69;4158061;28;20136;-73
2023/03/01 06:42:54;;;;;;;31.88;14.23;;;;;;;-7.78;100.00;99635.75;4159609;28;20152;-73
2023/03/01 06:44:54;;;;;;;34.50;15.20;;;;;;;-7.75;100.00;99638.00;4160095;28;20451;-73
2023/03/01 06:46:55;;;;;;;35.10;15.35;;;;;;;-7.69;100.00;99649.72;4160490;28;20053;-73
2023/03/01 06:48:55;;;;;;;35.28;15.77;;;;;;;-7.64;100.00;99653.31;4159647;28;20128;-72
2023/03/01 06:50:58;;;;;;;43.53;17.05;;;;;;;-7.55;100.00;99650.31;4160378;28;20046;-72
2023/03/01 06:52:58;;;;;;;29.35;16.48;;;;;;;-7.52;100.00;99650.69;4159361;28;20045;-73
2023/03/01 06:54:59;;;;;;;32.97;15.18;;;;;;;-7.46;100.00;99659.66;4160359;28;20068;-73
2023/03/01 06:57:00;;;;;;;31.95;15.13;;;;;;;-7.45;100.00;99648.66;4160025;28;20049;-73
2023/03/01 06:59:00;;;;;;;37.05;16.45;;;;;;;-7.43;100.00;99654.66;4160202;28;20037;-73
2023/03/01 07:01:05;;;;;;;34.72;16.67;;;;;;;-7.32;100.00;99657.59;4160525;28;20327;-72
2023/03/01 07:03:06;;;;;;;35.88;16.63;;;;;;;-7.27;100.00;99660.41;4159327;28;20045;-73
2023/03/01 07:05:06;;;;;;;27.20;14.35;;;;;;;-7.24;100.00;99654.53;4159574;28;20033;-73
2023/03/01 07:07:07;;;;;;;34.80;15.55;;;;;;;-7.26;100.00;99657.47;4158627;28;20049;-73
2023/03/01 07:09:07;;;;;;;33.00;16.67;;;;;;;-7.23;100.00;99657.00;4160300;28;20041;-73
2023/03/01 07:11:08;;;;;;;35.83;15.35;;;;;;;-7.21;100.00;99657.56;4159965;28;20060;-73
2023/03/01 07:13:08;;;;;;;32.70;15.68;;;;;;;-7.19;100.00;99660.88;4159426;28;20124;-73
2023/03/01 07:15:10;;;;;;;29.10;14.13;;;;;;;-7.18;100.00;99653.63;4160713;28;20038;-73
2023/03/01 07:17:10;;;;;;;36.35;16.73;;;;;;;-7.13;100.00;99651.84;4159906;28;20037;-72
2023/03/01 07:19:10;;;;;;;42.50;17.83;;;;;;;-7.11;100.00;99652.44;4159361;28;20357;-73
2023/03/01 07:21:13;;;;;;;32.42;15.68;;;;;;;-7.04;100.00;99648.81;4160174;28;20064;-72
2023/03/01 07:23:13;;;;;;;34.28;16.88;;;;;;;-7.00;100.00;99637.34;4158956;28;20118;-72
2023/03/01 07:25:13;;;;;;;38.67;15.73;;;;;;;-6.97;100.00;99642.25;4159847;28;20050;-72
2023/03/01 07:27:14;;;;;;;42.70;18.55;;;;;;;-6.92;100.00;99639.69;4159729;28;20182;-72
2023/03/01 07:29:14;;;;;;;34.10;17.40;;;;;;;-6.91;100.00;99638.63;4159565;28;20179;-72
2023/03/01 07:31:14;;;;;;;30.00;15.07;;;;;;;-6.83;100.00;99638.25;4160060;28;20414;-73
2023/03/01 07:33:15;;;;;;;44.03;16.25;;;;;;;-6.82;100.00;99631.81;4158510;28;20484;-73
2023/03/01 07:35:15;;;;;;;39.80;16.30;;;;;;;-6.79;100.00;99628.66;4159654;28;20500;-73
2023/03/01 07:37:16;;;;;;;34.03;16.27;;;;;;;-6.71;100.00;99629.34;4159720;28;20060;-73
2023/03/01 07:39:16;;;;;;;36.47;17.10;;;;;;;-6.66;100.00;99632.16;4159542;28;20116;-73
2023/03/01 07:41:17;;;;;;;34.35;15.77;;;;;;;-6.61;100.00;99632.28;4159560;28;20121;-72
2023/03/01 07:43:17;;;;;;;39.70;18.30;;;;;;;-6.61;100.00;99630.38;4158761;28;20321;-72
2023/03/01 07:45:18;;;;;;;41.13;19.98;;;;;;;-6.58;100.00;99634.47;4159829;28;20090;-72
2023/03/01 07:47:18;;;;;;;43.55;19.30;;;;;;;-6.56;100.00;99637.72;4159061;28;20092;-72
2023/03/01 07:49:18;;;;;;;34.97;16.92;;;;;;;-6.51;100.00;99637.84;4159288;28;20049;-72
2023/03/01 07:51:19;;;;;;;34.50;16.83;;;;;;;-6.46;100.00;99640.63;4159696;28;20608;-72
2023/03/01 07:53:19;;;;;;;38.20;18.15;;;;;;;-6.42;100.00;99641.81;4158648;28;20061;-72
2023/03/01 07:55:20;;;;;;;35.13;17.98;;;;;;;-6.35;100.00;99647.06;4159322;28;20179;-73
2023/03/01 07:57:20;;;;;;;39.08;18.67;;;;;;;-6.29;100.00;99640.69;4159638;28;20187;-73
2023/03/01 07:59:20;;;;;;;36.33;17.23;;;;;;;-6.26;100.00;99642.94;4159045;28;20056;-73
2023/03/01 08:01:21;;;;;;;36.90;17.27;;;;;;;-6.20;100.00;99633.88;4159263;28;20045;-73
2023/03/01 08:03:22;;;;;;;35.42;16.48;;;;;;;-6.15;100.00;99639.34;4158402;28;20075;-73
2023/03/01 08:05:22;;;;;;;44.70;18.33;;;;;;;-6.11;100.00;99631.63;4158967;28;20132;-73
2023/03/01 08:07:22;;;;;;;41.90;19.33;;;;;;;-6.05;100.00;99636.84;4158734;28;20073;-73
2023/03/01 08:09:23;;;;;;;37.50;17.73;;;;;;;-6.00;100.00;99636.13;4159048;28;20041;-73
2023/03/01 08:11:23;;;;;;;37.60;18.30;;;;;;;-5.94;100.00;99640.56;4159224;28;20479;-73
2023/03/01 08:13:24;;;;;;;33.33;16.55;;;;;;;-5.88;100.00;99636.03;4158547;28;20049;-73
2023/03/01 08:15:24;;;;;;;36.53;17.70;;;;;;;-5.82;100.00;99635.06;4159897;28;20041;-73
2023/03/01 08:17:25;;;;;;;38.42;18.02;;;;;;;-5.75;100.00;99641.13;4158867;28;20097;-73
2023/03/01 08:19:25;;;;;;;34.13;17.95;;;;;;;-5.68;100.00;99634.53;4158451;28;20439;-73
2023/03/01 08:21:26;;;;;;;45.50;20.80;;;;;;;-5.65;100.00;99625.94;4158939;28;20052;-73
2023/03/01 08:23:26;;;;;;;39.38;18.83;;;;;;;-5.59;100.00;99637.63;4158532;28;20478;-73
2023/03/01 08:25:26;;;;;;;36.58;17.42;;;;;;;-5.55;100.00;99636.06;4158002;28;20176;-73
2023/03/01 08:27:26;;;;;;;37.25;18.00;;;;;;;-5.52;100.00;99632.91;4158563;28;20033;-73
2023/03/01 08:29:27;;;;;;;32.15;17.02;;;;;;;-5.48;100.00;99631.31;4158813;28;20091;-72
2023/03/01 08:31:45;;;;;;;38.15;17.63;;;;;;;-5.43;100.00;99622.50;4158599;28;20057;-72
2023/03/01 08:33:54;;;;;;;31.33;15.95;;;;;;;-5.37;100.00;99627.75;4157299;28;20041;-72
2023/03/01 08:36:06;;;;;;;36.72;18.63;;;;;;;-5.29;100.00;99631.09;4158928;28;20064;-72
2023/03/01 08:38:06;;;;;;;31.27;16.55;;;;;;;-5.20;100.00;99624.22;4158118;28;20034;-73
2023/03/01 08:40:09;;;;;;;29.35;15.65;;;;;;;-5.12;100.00;99629.19;4158164;28;20120;-73
2023/03/01 08:42:10;;;;;;;32.75;16.67;;;;;;;-5.03;100.00;99632.28;4158439;28;20339;-73
2023/03/01 08:44:12;;;;;;;35.47;16.52;;;;;;;-4.94;100.00;99625.41;4157881;28;20032;-73
2023/03/01 08:46:13;;;;;;;;;;;;;;;-4.84;100.00;99625.53;4158758;28;20033;-73
2023/03/01 08:48:13;;;;;;;33.38;15.07;;;;;;;-4.78;100.00;99615.63;4158380;28;19913;-73
2023/03/01 08:50:14;;;;;;;33.70;16.73;;;;;;;-4.75;100.00;99624.03;4158836;28;20082;-73
2023/03/01 08:52:14;;;;;;;29.95;15.90;;;;;;;-4.68;100.00;99623.88;4158393;28;20053;-73
2023/03/01 08:54:20;;;;;;;31.63;16.85;;;;;;;-4.60;100.00;99620.72;4157608;28;20037;-73
2023/03/01 08:56:20;;;;;;;30.30;15.88;;;;;;;-4.50;100.00;99622.72;4157900;28;20243;-73
2023/03/01 08:58:21;;;;;;;33.13;15.63;;;;;;;-4.43;100.00;99615.25;4158388;28;20041;-72
2023/03/01 09:00:22;;;;;;;27.63;16.38;;;;;;;-4.38;100.00;99596.41;4158180;28;20102;-72
2023/03/01 09:02:22;;;;;;;28.52;15.57;;;;;;;-4.31;100.00;99607.81;4157917;28;20187;-72
2023/03/01 09:04:22;;;;;;;37.92;17.13;;;;;;;-4.16;100.00;99601.78;4157741;28;20049;-72
2023/03/01 09:06:23;;;;;;;32.53;17.25;;;;;;;-4.06;100.00;99601.88;4158451;28;20041;-72
2023/03/01 09:08:23;;;;;;;27.75;15.38;;;;;;;-3.98;100.00;99604.94;4158167;28;20034;-73
2023/03/01 09:10:23;;;;;;;29.30;15.88;;;;;;;-3.92;100.00;99599.59;4157892;28;20073;-73
2023/03/01 09:12:24;;;;;;;31.23;15.05;;;;;;;-3.85;100.00;99601.00;4157779;28;20524;-72
2023/03/01 09:14:25;;;;;;;34.67;15.77;;;;;;;-3.79;100.00;99591.06;4157509;28;20045;-73
2023/03/01 09:16:25;;;;;;;29.20;15.02;;;;;;;-3.72;100.00;99591.66;4158350;28;21028;-73